ATTENTION Outdoor sensors OFFLINE - ΠΡΟΣΟΧΗ Εξωτερικοί αισθητήρες ΕΚΤΟΣ ΛΕΙΤΟΥΡΓΙΑΣ
Βροχόπτωση Από: 25-02-2018 01:00 έως: 26-02-2018 00:59 Προειδοποίηση για: Βροχόπτωση Επίπεδο: Κίτρινο info button

Προειδοποίηση για Βροχή Περισσότερα rain snow radar


Οι άλλοι ιστότοποί μου:

SYKIA HOMEWEATHERSTATIONsikeaweather.alinos.eu

alinos.eualinos.eu



Αναφορές γειτονικών METAR

   
LGEL - Elefsis (hel-Afb, Greece
Απόσταση από τον σταθμό: Α 77 km
Ενημερώθηκε: 25-02-2018 05:20
Σχεδόν νεφελώδης  
Σχεδόν νεφελώδης  
   Ανεμος: Απνοια
Ανεμος: Απνοια
Θερμοκρασία: 10°C
Σημείο Δρόσου: 8°C
Υγρασία: 88%
Βαρόμετρο: 1008 hPa
Νεφώσεις: Σχεδόν νεφελώδης
Ορατότητα: More than 10 km
Στοιχεία νεφών: Μερικώς νεφελώδης 2500 ft,
Σχεδόν νεφελώδης 6000 ft
LGEL 250320Z 00000KT 9999 SCT025 BKN060 10/08 Q1008
LGRX - Araxos (civ/Afb), Greece
Απόσταση από τον σταθμό: Δ 110 km
Ενημερώθηκε: 25-02-2018 05:20
Σχεδόν νεφελώδης  
Σχεδόν νεφελώδης  
   Ανεμος: μεταβλητός 5.6 km/h
Ανεμος: μεταβλητός 5.6 km/h
Θερμοκρασία: 10°C
Αίσθηση ψύχους: 9°C
Σημείο Δρόσου: 10°C
Υγρασία: 100%
Βαρόμετρο: 1008 hPa
Νεφώσεις: Σχεδόν νεφελώδης
Ορατότητα: More than 10 km
Στοιχεία νεφών: Σχεδόν νεφελώδης 2500 ft,
Μερικώς νεφελώδης 8000 ft
LGRX 250320Z VRB03KT 9999 BKN025 SCT080 10/10 Q1008
LGAV - Athens/Elef-Ven, Greece
Απόσταση από τον σταθμό: Α 113 km
Ενημερώθηκε: 25-02-2018 05:20
Σχεδόν νεφελώδης  
Σχεδόν νεφελώδης  
   Ανεμος: ΑΒΑ 9.3 km/h
Ανεμος: ΑΒΑ 9.3 km/h
Θερμοκρασία: 10°C
Αίσθηση ψύχους: 9°C
Σημείο Δρόσου: 7°C
Υγρασία: 82%
Βαρόμετρο: 1009 hPa
Νεφώσεις: Σχεδόν νεφελώδης
Ορατότητα: More than 10 km
Στοιχεία νεφών: Σχεδόν νεφελώδης 4000 ft
LGAV 250320Z 07005KT 9999 BKN040 10/07 Q1009 NOSIG
LGAD - Andravida (civ/A, Greece
Απόσταση από τον σταθμό: Δ 124 km
Ενημερώθηκε: 25-02-2018 05:20
Σχεδόν νεφελώδης  
Σχεδόν νεφελώδης  
   Ανεμος: ΝΝΑ 7.4 km/h
Ανεμος: ΝΝΑ 7.4 km/h
Θερμοκρασία: 10°C
Αίσθηση ψύχους: 9°C
Σημείο Δρόσου: 8°C
Υγρασία: 88%
Βαρόμετρο: 1008 hPa
Νεφώσεις: Σχεδόν νεφελώδης
Ορατότητα: More than 10 km
Στοιχεία νεφών: Μερικώς νεφελώδης 2000 ft,
Σχεδόν νεφελώδης 7000 ft
LGAD 250320Z 16004KT 9999 SCT020 BKN070 10/08 Q1008
LGKL - Kalamata (hel-Af, Greece
Απόσταση από τον σταθμό: ΝΝΔ 124 km
Ενημερώθηκε: 25-02-2018 05:20
Διάσπαρτα νέφη  
Διάσπαρτα νέφη  
   Ανεμος: ΒΒΔ 7.4 km/h
Ανεμος: ΒΒΔ 7.4 km/h
Θερμοκρασία: 6°C
Αίσθηση ψύχους: 4°C
Σημείο Δρόσου: 5°C
Υγρασία: 93%
Βαρόμετρο: 1009 hPa
Νεφώσεις: Διάσπαρτα νέφη
Ορατότητα: More than 10 km
Στοιχεία νεφών: Διάσπαρτα νέφη 2500 ft
LGKL 250320Z 33004KT 9999 FEW025 06/05 Q1009
LGBL - Nea Anchialos, Greece
Απόσταση από τον σταθμό: Β 129 km
Ενημερώθηκε: 25-02-2018 04:50
Σχεδόν νεφελώδης  
Σχεδόν νεφελώδης  
   Ανεμος: Απνοια
Ανεμος: Απνοια
Θερμοκρασία: 8°C
Σημείο Δρόσου: 6°C
Υγρασία: 87%
Βαρόμετρο: 1009 hPa
Νεφώσεις: Σχεδόν νεφελώδης
Ορατότητα: More than 10 km
Στοιχεία νεφών: Διάσπαρτα νέφη 1000 ft,
Μερικώς νεφελώδης 3000 ft,
Σχεδόν νεφελώδης 8000 ft
LGBL 250250Z 00000KT 9999 FEW010 SCT030 BKN080 08/06 Q1009

Αρχική γραφή από  Saratoga-weather.org Προσαρμογή στον ιστότοπο από  Weerstation Leuven

Βλέπε επίσης τις ενημερώσεις τού σταθμού μας στα παρακάτω δίκτυα:

European Weather Network

Weather Underground

Citizen Weather Observer Program (CWOP)

HAMweather, WeatherForYou, PWS Weather

UK Metoffice